Time;durP1;ratioP1;P1;durP2;ratioP2;P2;SDS_P1;SDS_P2;PMS_P1;PMS_P2;Temp;Humidity;BMP_temperature;BMP_pressure;BME280_temperature;BME280_humidity;BME280_pressure;Samples;Min_cycle;Max_cycle;Signal;HPM_P1;HPM_P2
2022/08/31 00:05:38;;;;;;;3.27;2.87;;;;;;;14.88;87.69;96894.92;1726034;82;21038;-87
2022/08/31 00:08:05;;;;;;;5.70;3.08;;;;;;;14.85;87.82;96884.86;1726017;82;21039;-88
2022/08/31 00:10:31;;;;;;;4.03;3.50;;;;;;;14.85;88.12;96888.78;1717870;82;21000;-87
2022/08/31 00:12:57;;;;;;;3.62;2.80;;;;;;;14.81;88.06;96886.26;1702070;83;21381;-88
2022/08/31 00:15:24;;;;;;;6.37;2.77;;;;;;;14.81;88.06;96885.45;1724923;83;21018;-87
2022/08/31 00:17:50;;;;;;;4.50;3.77;;;;;;;14.77;88.09;96877.67;1722193;83;21009;-87
2022/08/31 00:20:16;;;;;;;4.08;2.90;;;;;;;14.70;88.41;96872.42;1713742;83;21062;-87
2022/08/31 00:22:42;;;;;;;3.17;2.67;;;;;;;14.63;88.66;96868.95;1713313;83;20942;-87
2022/08/31 00:25:08;;;;;;;4.83;3.12;;;;;;;14.59;89.10;96862.01;1704454;83;20958;-87
2022/08/31 00:27:34;;;;;;;3.92;2.50;;;;;;;14.55;89.37;96855.56;1704062;83;21019;-87
2022/08/31 00:29:59;;;;;;;2.77;2.55;;;;;;;14.53;88.87;96852.84;1721571;83;21064;-87
2022/08/31 00:32:25;;;;;;;3.05;2.02;;;;;;;14.58;88.78;96855.17;1725905;83;21693;-87
2022/08/31 00:34:51;;;;;;;3.12;2.10;;;;;;;14.70;87.96;96842.34;1725921;83;20994;-88
2022/08/31 00:37:18;;;;;;;3.00;2.50;;;;;;;14.82;87.82;96847.32;1714403;82;20959;-87
2022/08/31 00:39:44;;;;;;;4.37;2.45;;;;;;;14.91;87.42;96854.47;1719901;83;20993;-87
2022/08/31 00:42:11;;;;;;;3.37;2.58;;;;;;;14.99;88.14;96857.73;1725952;83;20956;-88
2022/08/31 00:44:38;;;;;;;4.03;3.37;;;;;;;15.02;87.96;96868.30;1721977;82;21018;-87
2022/08/31 00:47:04;;;;;;;2.42;2.22;;;;;;;15.03;87.67;96863.88;1702873;82;21002;-87
2022/08/31 00:49:33;;;;;;;2.40;2.20;;;;;;;15.03;87.48;96875.66;1687045;82;21041;-87
2022/08/31 00:52:13;;;;;;;3.85;2.67;;;;;;;15.03;87.83;96885.61;1762499;80;20975;-88
2022/08/31 00:54:47;;;;;;;4.20;2.95;;;;;;;15.00;87.36;96887.33;1706379;82;20932;-87
2022/08/31 00:57:12;;;;;;;4.83;2.85;;;;;;;14.93;87.60;96884.67;1720646;82;21074;-87
2022/08/31 00:59:39;;;;;;;3.30;3.00;;;;;;;14.91;87.55;96886.68;1736418;81;20998;-87
2022/08/31 01:02:05;;;;;;;3.95;2.80;;;;;;;14.90;87.62;96882.45;1736425;81;21362;-87
2022/08/31 01:04:31;;;;;;;4.15;2.70;;;;;;;14.88;87.69;96885.77;1727458;82;21034;-87
2022/08/31 01:06:57;;;;;;;4.28;2.87;;;;;;;14.85;87.79;96890.09;1738209;81;21062;-88
2022/08/31 01:09:24;;;;;;;2.80;2.47;;;;;;;14.82;87.98;96890.48;1723243;81;20963;-87
2022/08/31 01:11:49;;;;;;;2.33;2.12;;;;;;;14.76;87.90;96891.25;1708775;82;21389;-88
2022/08/31 01:14:15;;;;;;;2.77;2.35;;;;;;;14.73;88.04;96887.72;1710606;81;21071;-88
2022/08/31 01:16:50;;;;;;;3.83;2.27;;;;;;;14.70;88.11;96883.69;1729990;81;20911;-88
2022/08/31 01:19:36;;;;;;;3.35;2.40;;;;;;;14.67;88.10;96889.32;1721284;83;20952;-87
2022/08/31 01:22:16;;;;;;;3.77;2.40;;;;;;;14.65;88.27;96888.71;1712882;81;21020;-87
2022/08/31 01:24:44;;;;;;;3.55;2.25;;;;;;;14.62;88.10;96894.30;1725409;81;20999;-87
2022/08/31 01:27:11;;;;;;;3.05;2.27;;;;;;;14.60;87.88;96894.20;1701348;83;20963;-87
2022/08/31 01:29:37;;;;;;;5.05;2.85;;;;;;;14.57;87.85;96891.47;1706890;81;21026;-87
2022/08/31 01:32:04;;;;;;;3.37;2.25;;;;;;;14.56;88.00;96887.75;1714428;81;20925;-87
2022/08/31 01:34:30;;;;;;;2.70;2.20;;;;;;;14.53;87.87;96882.41;1731046;81;20997;-87
2022/08/31 01:36:56;;;;;;;2.85;2.12;;;;;;;14.52;87.71;96883.91;1735516;81;21014;-87
2022/08/31 01:39:22;;;;;;;2.65;2.00;;;;;;;14.49;87.91;96884.31;1707285;82;21101;-87
2022/08/31 01:41:48;;;;;;;2.27;1.98;;;;;;;14.46;88.07;96882.86;1728879;81;22322;-87
2022/08/31 01:44:18;;;;;;;2.27;2.00;;;;;;;14.44;88.11;96880.14;1728410;81;20965;-87
2022/08/31 01:46:44;;;;;;;3.27;1.98;;;;;;;14.39;87.99;96882.81;1732232;81;20971;-87
2022/08/31 01:49:10;;;;;;;3.25;2.00;;;;;;;14.34;88.06;96878.67;1744837;81;20952;-87
2022/08/31 01:51:36;;;;;;;2.22;1.92;;;;;;;14.32;88.12;96869.41;1718779;82;20988;-87
2022/08/31 01:54:02;;;;;;;3.83;1.90;;;;;;;14.29;88.29;96874.50;1709339;82;20950;-87
2022/08/31 01:56:32;;;;;;;2.45;2.10;;;;;;;14.24;88.30;96871.66;1739301;81;21427;-87
2022/08/31 01:58:58;;;;;;;2.27;1.80;;;;;;;14.22;88.31;96871.55;1734379;81;21443;-87
2022/08/31 02:01:30;;;;;;;3.55;2.33;;;;;;;14.19;88.26;96870.13;1741914;81;20964;-88
2022/08/31 02:03:56;;;;;;;2.85;1.77;;;;;;;14.17;88.38;96872.14;1730553;81;20991;-87
2022/08/31 02:06:21;;;;;;;2.45;2.25;;;;;;;14.17;88.60;96879.98;1724521;82;21355;-87
2022/08/31 02:08:47;;;;;;;3.25;2.20;;;;;;;14.13;88.36;96882.14;1712918;81;20978;-88
2022/08/31 02:11:13;;;;;;;2.45;1.70;;;;;;;14.10;88.69;96886.95;1715811;81;20943;-87
2022/08/31 02:13:39;;;;;;;3.25;2.25;;;;;;;14.08;88.74;96883.22;1718905;82;21380;-87
2022/08/31 02:16:05;;;;;;;3.58;2.22;;;;;;;14.06;88.80;96880.50;1731918;81;21315;-87
2022/08/31 02:18:30;;;;;;;4.40;2.62;;;;;;;14.04;88.84;96880.69;1721055;81;21011;-87
2022/08/31 02:20:56;;;;;;;3.75;2.20;;;;;;;14.05;89.14;96876.27;1710259;83;20978;-87
2022/08/31 02:23:22;;;;;;;3.10;2.20;;;;;;;14.04;89.37;96871.55;1730021;83;21095;-87
2022/08/31 02:25:47;;;;;;;3.15;2.00;;;;;;;13.99;89.36;96859.56;1729837;81;21072;-87
2022/08/31 02:28:13;;;;;;;3.40;2.62;;;;;;;14.04;89.34;96865.02;1730545;81;21313;-87
2022/08/31 02:30:40;;;;;;;2.37;2.17;;;;;;;14.04;89.53;96868.13;1732875;81;21033;-87
2022/08/31 02:33:06;;;;;;;2.42;2.22;;;;;;;14.03;89.45;96865.21;1730181;81;21491;-87
2022/08/31 02:35:33;;;;;;;2.77;2.52;;;;;;;14.00;89.53;96855.95;1729089;81;20981;-87
2022/08/31 02:37:59;;;;;;;2.83;2.12;;;;;;;14.00;89.65;96864.29;1711006;81;21312;-87
2022/08/31 02:40:25;;;;;;;3.08;2.30;;;;;;;14.00;89.36;96866.91;1711575;81;21012;-87
2022/08/31 02:42:51;;;;;;;3.10;2.50;;;;;;;13.97;89.33;96861.53;1714206;81;20941;-87
2022/08/31 02:45:18;;;;;;;4.28;2.67;;;;;;;13.97;89.41;96866.77;1724992;81;21013;-87
2022/08/31 02:47:44;;;;;;;2.90;2.33;;;;;;;13.98;89.36;96863.65;1729639;81;21332;-87
2022/08/31 02:50:09;;;;;;;3.67;2.83;;;;;;;13.95;89.33;96871.88;1709459;81;21344;-87
2022/08/31 02:52:35;;;;;;;4.58;2.83;;;;;;;13.90;89.21;96872.95;1731417;81;22007;-87
2022/08/31 02:55:01;;;;;;;3.85;2.62;;;;;;;13.86;89.43;96875.14;1730117;83;21016;-87
2022/08/31 02:57:27;;;;;;;4.05;2.90;;;;;;;13.84;89.74;96866.70;1732471;81;21049;-88
2022/08/31 02:59:53;;;;;;;2.95;2.65;;;;;;;13.81;89.56;96866.55;1729761;81;21072;-87
2022/08/31 03:02:18;;;;;;;4.92;3.15;;;;;;;13.77;89.65;96868.43;1725205;81;21004;-86
2022/08/31 03:04:44;;;;;;;3.25;2.90;;;;;;;13.73;89.70;96865.40;1674960;84;21375;-87
2022/08/31 03:07:10;;;;;;;4.78;3.00;;;;;;;13.71;89.94;96862.67;1707829;81;21001;-87
2022/08/31 03:09:35;;;;;;;3.12;2.83;;;;;;;13.68;90.04;96862.56;1717925;81;20997;-87
2022/08/31 03:12:02;;;;;;;5.35;3.22;;;;;;;13.65;90.12;96862.91;1718702;81;21336;-87
2022/08/31 03:14:28;;;;;;;4.55;3.22;;;;;;;13.63;90.12;96861.48;1726024;81;21001;-86
2022/08/31 03:16:53;;;;;;;2.83;2.62;;;;;;;13.60;90.30;96866.59;1729883;83;21020;-87
2022/08/31 03:19:20;;;;;;;3.45;2.50;;;;;;;13.59;90.22;96862.87;1731927;81;20961;-87
2022/08/31 03:21:45;;;;;;;3.47;2.72;;;;;;;13.60;90.34;96861.88;1732322;81;21363;-87
2022/08/31 03:24:13;;;;;;;4.42;2.90;;;;;;;13.61;90.19;96862.18;1729431;81;21001;-87
2022/08/31 03:26:39;;;;;;;4.60;3.08;;;;;;;13.59;90.24;96862.87;1722882;81;21009;-87
2022/08/31 03:29:06;;;;;;;4.25;3.00;;;;;;;13.58;90.46;96865.98;1720475;81;21246;-87
2022/08/31 03:31:31;;;;;;;3.15;2.85;;;;;;;13.57;90.54;96869.59;1730440;81;20950;-87
2022/08/31 03:33:58;;;;;;;3.92;3.20;;;;;;;13.57;90.72;96864.86;1729858;81;21000;-87
2022/08/31 03:36:24;;;;;;;2.92;2.62;;;;;;;13.58;90.90;96864.67;1730041;81;20969;-87
2022/08/31 03:38:50;;;;;;;2.85;2.60;;;;;;;13.60;90.99;96867.09;1730525;81;21028;-87
2022/08/31 03:41:20;;;;;;;4.35;2.60;;;;;;;13.61;91.05;96864.29;1718023;81;20954;-87
2022/08/31 03:43:46;;;;;;;4.20;3.05;;;;;;;13.61;90.98;96858.27;1725666;81;21087;-88
2022/08/31 03:46:12;;;;;;;3.92;2.92;;;;;;;13.60;90.93;96856.65;1710932;81;21061;-86
2022/08/31 03:48:37;;;;;;;3.30;2.75;;;;;;;13.59;91.09;96861.06;1729883;81;20987;-87
2022/08/31 03:51:03;;;;;;;3.70;2.80;;;;;;;13.60;91.18;96858.76;1730363;81;20957;-87
2022/08/31 03:53:29;;;;;;;3.37;2.83;;;;;;;13.58;91.09;96863.87;1729102;81;20972;-87
2022/08/31 03:56:00;;;;;;;4.08;2.67;;;;;;;13.58;91.28;96859.45;1729971;81;21020;-87
2022/08/31 03:58:22;;;;;;;3.42;2.60;;;;;;;13.57;91.27;96868.28;1757969;81;20992;-87
2022/08/31 04:00:48;;;;;;;4.45;2.50;;;;;;;13.56;91.40;96867.17;1737423;81;21135;-87
2022/08/31 04:03:14;;;;;;;2.75;2.27;;;;;;;13.56;91.61;96869.28;1736793;81;21490;-87
2022/08/31 04:05:42;;;;;;;4.45;2.58;;;;;;;13.55;91.83;96874.19;1709451;81;21044;-87
2022/08/31 04:08:08;;;;;;;2.40;2.20;;;;;;;13.57;91.74;96875.31;1709025;81;20996;-87
2022/08/31 04:10:34;;;;;;;3.70;2.30;;;;;;;13.57;92.00;96875.31;1731425;81;20988;-87
2022/08/31 04:13:00;;;;;;;3.27;2.17;;;;;;;13.57;92.03;96868.78;1709228;81;21016;-87
2022/08/31 04:15:26;;;;;;;3.40;2.60;;;;;;;13.57;92.09;96862.25;1706915;82;21043;-87
2022/08/31 04:17:51;;;;;;;3.95;2.15;;;;;;;13.56;92.25;96866.67;1740738;81;20992;-87
2022/08/31 04:20:18;;;;;;;2.50;2.30;;;;;;;13.57;92.14;96868.78;1732539;82;21060;-87
2022/08/31 04:22:44;;;;;;;2.95;2.33;;;;;;;13.59;92.23;96868.90;1723775;81;20975;-87
2022/08/31 04:25:10;;;;;;;4.10;2.67;;;;;;;13.60;92.17;96865.28;1731687;82;21004;-87
2022/08/31 04:27:37;;;;;;;3.45;2.50;;;;;;;13.63;92.57;96867.52;1704711;82;21049;-87
2022/08/31 04:30:06;;;;;;;3.02;2.50;;;;;;;13.65;92.68;96851.16;1738364;81;21045;-87
2022/08/31 04:32:33;;;;;;;2.62;2.25;;;;;;;13.63;92.67;96853.66;1737180;81;22180;-86
2022/08/31 04:35:00;;;;;;;2.95;2.62;;;;;;;13.63;92.88;96857.07;1721117;81;20976;-87
2022/08/31 04:37:27;;;;;;;4.67;2.60;;;;;;;13.60;93.20;96854.84;1747661;81;21406;-87
2022/08/31 04:39:54;;;;;;;5.37;2.80;;;;;;;13.60;93.39;96852.73;1709770;82;21012;-87
2022/08/31 04:42:20;;;;;;;3.80;2.55;;;;;;;13.57;93.43;96854.42;1733642;81;21014;-87
2022/08/31 04:44:45;;;;;;;3.72;2.30;;;;;;;13.53;93.86;96859.22;1724450;82;21024;-87
2022/08/31 04:47:11;;;;;;;2.85;2.40;;;;;;;13.52;94.47;96860.22;1736658;81;21003;-88
2022/08/31 04:49:37;;;;;;;3.45;3.08;;;;;;;13.55;94.76;96865.05;1736363;81;20954;-88
2022/08/31 04:52:03;;;;;;;3.60;2.92;;;;;;;13.54;94.85;96867.86;1695808;83;20993;-87
2022/08/31 04:54:29;;;;;;;4.85;3.55;;;;;;;13.52;95.03;96868.05;1713815;81;21022;-87
2022/08/31 04:56:57;;;;;;;3.52;3.10;;;;;;;13.50;94.93;96879.15;1708568;82;21024;-87
2022/08/31 04:59:24;;;;;;;4.37;3.60;;;;;;;13.55;94.98;96882.03;1708216;81;21018;-87
2022/08/31 05:01:50;;;;;;;4.80;4.08;;;;;;;13.59;94.83;96883.75;1694776;83;21038;-87
2022/08/31 05:04:16;;;;;;;4.47;4.08;;;;;;;13.61;94.41;96896.92;1709694;83;21350;-87
2022/08/31 05:06:44;;;;;;;5.03;3.75;;;;;;;13.63;94.21;96890.21;1709126;84;20967;-87
2022/08/31 05:09:14;;;;;;;5.53;3.42;;;;;;;13.64;94.18;96895.24;1725176;82;21368;-87
2022/08/31 05:11:40;;;;;;;4.65;3.90;;;;;;;13.70;94.17;96900.23;1725711;82;21406;-87
2022/08/31 05:14:06;;;;;;;4.45;3.62;;;;;;;13.73;93.95;96903.27;1711678;82;21002;-87
2022/08/31 05:16:32;;;;;;;4.15;3.45;;;;;;;13.76;94.13;96897.66;1691994;82;21089;-87
2022/08/31 05:18:58;;;;;;;4.08;3.40;;;;;;;13.80;94.09;96905.42;1747417;80;21000;-87
2022/08/31 05:21:31;;;;;;;4.35;3.80;;;;;;;13.86;94.11;96911.71;1753167;80;20944;-87
2022/08/31 05:24:06;;;;;;;3.77;3.30;;;;;;;13.85;93.97;96902.77;1744094;81;20961;-87
2022/08/31 05:26:35;;;;;;;6.42;3.60;;;;;;;13.89;94.20;96911.33;1764884;80;21017;-87
2022/08/31 05:29:03;;;;;;;4.78;3.98;;;;;;;13.96;94.20;96908.26;1763736;81;21031;-87
2022/08/31 05:31:29;;;;;;;4.78;3.87;;;;;;;14.01;94.10;96914.23;1762859;80;21131;-87
2022/08/31 05:33:56;;;;;;;8.10;3.65;;;;;;;14.10;94.15;96914.39;1764676;80;20948;-88
2022/08/31 05:36:22;;;;;;;4.30;3.08;;;;;;;14.16;94.21;96913.64;1721720;82;20934;-86
2022/08/31 05:38:48;;;;;;;6.30;3.15;;;;;;;14.20;94.18;96918.79;1727039;83;20922;-87
2022/08/31 05:41:15;;;;;;;3.40;2.98;;;;;;;14.25;94.22;96919.52;1748054;81;21970;-87
2022/08/31 05:43:40;;;;;;;4.45;3.25;;;;;;;14.29;94.19;96922.86;1702676;82;20955;-87
2022/08/31 05:46:10;;;;;;;4.62;3.40;;;;;;;14.31;94.46;96912.20;1683702;83;21270;-87
2022/08/31 05:48:36;;;;;;;4.30;3.75;;;;;;;14.35;94.45;96918.19;1725855;82;21011;-87
2022/08/31 05:51:09;;;;;;;4.12;3.65;;;;;;;14.38;94.54;96920.41;1712497;82;21398;-86
2022/08/31 05:53:35;;;;;;;4.92;3.77;;;;;;;14.39;94.43;96919.41;1724356;81;21025;-87
2022/08/31 05:56:09;;;;;;;4.05;3.42;;;;;;;14.41;94.52;96916.09;1682940;84;21085;-87
2022/08/31 05:58:36;;;;;;;4.03;3.62;;;;;;;14.45;94.61;96915.23;1764377;80;20961;-87
2022/08/31 06:01:03;;;;;;;4.20;3.80;;;;;;;14.48;94.71;96917.49;1768616;79;21059;-87
2022/08/31 06:03:29;;;;;;;4.30;3.90;;;;;;;14.50;94.94;96918.61;1771632;79;21115;-87
2022/08/31 06:05:55;;;;;;;4.30;3.70;;;;;;;14.53;95.08;96923.44;1773262;80;21413;-87
2022/08/31 06:08:21;;;;;;;4.87;3.77;;;;;;;14.55;95.02;96923.55;1771221;79;20990;-87
2022/08/31 06:10:47;;;;;;;4.90;3.72;;;;;;;14.59;94.96;96925.27;1767631;81;20959;-87
2022/08/31 06:13:15;;;;;;;4.00;3.40;;;;;;;14.63;94.75;96935.65;1769473;79;21023;-87
2022/08/31 06:15:41;;;;;;;4.20;3.50;;;;;;;14.68;94.83;96934.59;1772520;79;21363;-87
2022/08/31 06:18:07;;;;;;;4.53;4.12;;;;;;;14.75;94.89;96939.34;1747780;81;21047;-87
2022/08/31 06:20:37;;;;;;;3.90;3.50;;;;;;;14.80;95.29;96941.36;1748642;80;20948;-87
2022/08/31 06:23:05;;;;;;;5.12;4.20;;;;;;;14.84;95.25;96932.95;1753029;81;21442;-87
2022/08/31 06:25:32;;;;;;;5.12;3.80;;;;;;;14.84;94.55;96941.30;1768731;79;21027;-87
2022/08/31 06:27:58;;;;;;;5.87;3.92;;;;;;;14.84;94.71;96938.19;1749429;80;21071;-87
2022/08/31 06:30:26;;;;;;;4.37;3.55;;;;;;;14.90;94.83;96941.83;1772330;79;21156;-87
2022/08/31 06:32:53;;;;;;;4.28;3.62;;;;;;;14.95;95.07;96948.08;1761910;80;21342;-87
2022/08/31 06:35:20;;;;;;;5.45;4.15;;;;;;;15.05;95.14;96942.98;1747743;81;21391;-87
2022/08/31 06:37:46;;;;;;;7.25;5.20;;;;;;;15.12;95.07;96940.69;1751740;81;21011;-87
2022/08/31 06:40:12;;;;;;;7.05;5.92;;;;;;;15.13;94.60;96937.56;1759327;80;20955;-87
2022/08/31 06:42:37;;;;;;;5.85;5.00;;;;;;;15.15;94.42;96936.90;1755699;81;20987;-87
2022/08/31 06:45:04;;;;;;;5.67;4.95;;;;;;;15.19;94.62;96933.68;1774385;79;21080;-88
2022/08/31 06:47:30;;;;;;;6.85;5.67;;;;;;;15.28;94.74;96941.64;1790163;79;20980;-87
2022/08/31 06:49:56;;;;;;;6.53;4.90;;;;;;;15.38;94.75;96938.66;1768724;81;20945;-87
2022/08/31 06:52:22;;;;;;;6.90;4.65;;;;;;;15.44;95.04;96939.16;1748525;79;20928;-87
2022/08/31 06:54:48;;;;;;;4.72;3.80;;;;;;;15.51;95.44;96941.81;1749520;81;21409;-86
2022/08/31 06:57:14;;;;;;;8.30;4.58;;;;;;;15.55;94.83;96943.83;1766313;79;20970;-86
2022/08/31 06:59:40;;;;;;;5.33;4.45;;;;;;;15.59;94.71;96951.62;1748812;80;21000;-87
2022/08/31 07:02:06;;;;;;;5.55;4.72;;;;;;;15.70;94.85;96955.98;1758882;80;21036;-87
2022/08/31 07:04:34;;;;;;;6.85;3.92;;;;;;;15.79;94.39;96953.48;1764914;81;21401;-87
2022/08/31 07:07:00;;;;;;;5.62;4.47;;;;;;;15.89;95.10;96955.18;1693914;83;21043;-87
2022/08/31 07:09:26;;;;;;;4.12;3.65;;;;;;;15.94;94.85;96955.38;1706420;83;21038;-88
2022/08/31 07:11:52;;;;;;;4.60;2.65;;;;;;;16.00;94.30;96959.03;1725030;82;20971;-87
2022/08/31 07:14:24;;;;;;;4.97;2.80;;;;;;;16.02;93.68;96963.05;1725363;82;21058;-87
2022/08/31 07:16:52;;;;;;;;;;;;;;;16.04;94.84;96967.59;1697908;84;21057;-87
2022/08/31 07:19:17;;;;;;;4.75;2.92;;;;;;;16.07;94.48;96963.75;1701881;82;20361;-87
2022/08/31 07:21:49;;;;;;;3.65;2.70;;;;;;;16.12;94.37;96962.66;1698298;84;21031;-88
2022/08/31 07:24:20;;;;;;;3.42;2.80;;;;;;;16.19;94.07;96962.14;1725350;82;21099;-87
2022/08/31 07:26:47;;;;;;;3.80;2.95;;;;;;;16.19;93.66;96966.87;1695674;85;21731;-87
2022/08/31 07:29:15;;;;;;;3.50;2.90;;;;;;;16.19;93.02;96968.70;1721628;83;20994;-88
2022/08/31 07:31:47;;;;;;;4.12;3.12;;;;;;;16.27;93.74;96966.36;1704576;83;21082;-87
2022/08/31 07:34:24;;;;;;;3.08;2.62;;;;;;;16.30;93.92;96968.60;1696520;83;21134;-88
2022/08/31 07:42:27;;;;;;;3.72;3.08;;;;;;;16.45;91.74;96966.57;1750185;80;20997;-87
2022/08/31 07:44:55;;;;;;;4.47;2.65;;;;;;;16.53;92.65;96958.47;1675687;83;21158;-88
2022/08/31 07:47:22;;;;;;;3.87;2.52;;;;;;;16.55;93.03;96964.31;1690074;84;21277;-88
2022/08/31 07:49:50;;;;;;;3.92;2.83;;;;;;;16.59;92.17;96963.39;1713538;83;20963;-87
2022/08/31 07:52:22;;;;;;;5.65;2.50;;;;;;;16.61;92.58;96960.89;1677608;83;21031;-88
2022/08/31 07:54:50;;;;;;;3.52;2.47;;;;;;;16.67;92.62;96968.47;1701825;83;21049;-88
2022/08/31 07:57:17;;;;;;;5.05;2.72;;;;;;;16.70;91.68;96975.41;1702153;83;20994;-87
2022/08/31 07:59:45;;;;;;;4.70;3.10;;;;;;;16.80;91.43;96978.42;1705756;83;21397;-87
2022/08/31 08:02:13;;;;;;;3.67;3.17;;;;;;;16.89;90.89;96978.99;1756137;80;21080;-88
2022/08/31 08:04:43;;;;;;;4.35;2.30;;;;;;;16.95;90.24;96974.25;1744870;80;20957;-88
2022/08/31 08:07:06;;;;;;;3.42;2.40;;;;;;;17.04;89.39;96968.24;1694180;83;21015;-88
2022/08/31 08:09:32;;;;;;;5.40;2.12;;;;;;;17.12;88.01;96976.41;1713582;82;20974;-88
2022/08/31 08:12:03;;;;;;;3.55;2.17;;;;;;;17.17;89.08;96983.95;1714315;83;21986;-88
2022/08/31 08:14:27;;;;;;;2.90;1.90;;;;;;;17.27;88.33;96986.95;1694507;83;21482;-87
2022/08/31 08:16:53;;;;;;;3.02;1.50;;;;;;;17.39;88.11;96981.31;1711449;83;20963;-88
2022/08/31 08:19:20;;;;;;;2.10;1.42;;;;;;;17.54;88.04;96976.29;1689729;83;21323;-88
2022/08/31 08:21:45;;;;;;;2.45;1.37;;;;;;;17.60;86.46;96978.90;1705424;82;21054;-88
2022/08/31 08:24:13;;;;;;;2.90;1.27;;;;;;;17.66;85.87;96974.61;1704303;83;21023;-88
2022/08/31 08:26:44;;;;;;;2.27;1.82;;;;;;;17.67;85.60;96986.22;1705285;83;20979;-88
2022/08/31 08:29:10;;;;;;;;;;;;;;;17.68;84.51;96987.86;1706951;83;21019;-88
2022/08/31 08:31:36;;;;;;;3.15;1.37;;;;;;;17.82;84.64;96984.64;1685485;82;20381;-88
2022/08/31 08:34:01;;;;;;;1.98;1.27;;;;;;;17.93;83.76;96984.48;1697146;83;21067;-88
2022/08/31 08:36:34;;;;;;;2.42;1.50;;;;;;;18.07;85.26;96990.45;1700298;84;21422;-87
2022/08/31 08:39:01;;;;;;;3.17;1.98;;;;;;;18.22;85.16;96990.91;1677117;84;20998;-88
2022/08/31 08:41:27;;;;;;;4.22;2.35;;;;;;;18.34;83.99;96978.67;1686827;82;21118;-88
2022/08/31 08:43:56;;;;;;;4.10;2.00;;;;;;;18.34;82.56;96982.63;1677234;84;20995;-88
2022/08/31 08:46:46;;;;;;;2.42;1.70;;;;;;;18.38;82.52;96985.11;1704115;82;21032;-88
2022/08/31 08:49:40;;;;;;;4.90;2.27;;;;;;;18.43;80.26;96982.66;1707112;82;20998;-88
2022/08/31 08:52:14;;;;;;;4.35;2.15;;;;;;;18.46;83.23;96986.16;1704838;83;20992;-88
2022/08/31 08:54:43;;;;;;;3.33;1.87;;;;;;;18.60;83.84;96981.07;1693821;83;20998;-88
2022/08/31 08:57:13;;;;;;;2.87;1.92;;;;;;;18.73;83.65;96979.38;1761186;80;21119;-88
2022/08/31 08:59:44;;;;;;;3.27;2.02;;;;;;;18.74;81.30;96986.23;1692860;83;20992;-88
2022/08/31 09:02:26;;;;;;;2.83;2.12;;;;;;;18.80;81.70;96978.77;1711108;83;21062;-87
2022/08/31 09:05:20;;;;;;;3.05;2.22;;;;;;;18.85;82.40;96979.72;1679761;83;21063;-88
2022/08/31 09:08:15;;;;;;;3.62;1.90;;;;;;;18.95;80.55;96975.27;1702521;84;21166;-88
2022/08/31 09:10:57;;;;;;;2.40;1.85;;;;;;;18.92;80.96;96974.39;1692824;83;21402;-88
2022/08/31 09:13:51;;;;;;;3.00;2.05;;;;;;;18.77;80.30;96976.08;1723105;83;21395;-88
2022/08/31 09:16:39;;;;;;;3.02;2.17;;;;;;;18.74;81.15;96973.08;1686845;84;21041;-86
2022/08/31 09:19:14;;;;;;;2.92;2.12;;;;;;;18.71;80.45;96961.16;1685637;85;20959;-88
2022/08/31 09:21:49;;;;;;;3.05;2.00;;;;;;;18.78;81.94;96965.03;1693753;85;21403;-88
2022/08/31 09:24:19;;;;;;;3.30;1.75;;;;;;;18.76;81.29;96973.15;1671147;85;21409;-88
2022/08/31 09:27:19;;;;;;;4.20;2.17;;;;;;;18.76;81.77;96973.66;1691176;83;21086;-88
2022/08/31 09:29:57;;;;;;;4.42;2.30;;;;;;;18.78;81.13;96969.78;1721650;83;20998;-89
2022/08/31 09:32:30;;;;;;;2.90;2.25;;;;;;;18.87;81.21;96966.33;1708539;83;21553;-88
2022/08/31 09:35:02;;;;;;;3.98;2.45;;;;;;;19.04;80.73;96968.70;1707159;82;21031;-89
2022/08/31 09:37:39;;;;;;;4.35;2.62;;;;;;;19.15;80.57;96974.52;1703058;83;21414;-89
2022/08/31 09:40:22;;;;;;;3.55;2.20;;;;;;;19.25;79.83;96967.94;1698186;83;21018;-89
2022/08/31 09:43:10;;;;;;;2.27;1.87;;;;;;;19.43;81.31;96965.26;1743720;81;21391;-88
2022/08/31 09:45:39;;;;;;;4.10;2.15;;;;;;;19.59;79.20;96964.66;1674832;83;21346;-88
2022/08/31 09:48:07;;;;;;;3.08;1.47;;;;;;;19.56;77.90;96968.27;1723073;83;20976;-88
2022/08/31 09:50:43;;;;;;;2.33;1.85;;;;;;;19.47;78.70;96964.58;1694814;84;21047;-89
2022/08/31 09:56:16;;;;;;;2.67;1.90;;;;;;;19.46;77.40;96962.17;1731845;80;21012;-88
2022/08/31 09:58:46;;;;;;;3.83;2.05;;;;;;;19.45;77.14;96964.52;1688833;82;21008;-89
2022/08/31 10:01:43;;;;;;;3.30;1.55;;;;;;;19.53;78.26;96968.17;1722903;83;21367;-88
2022/08/31 10:04:25;;;;;;;3.60;1.70;;;;;;;19.62;77.24;96963.41;1704780;82;20999;-89
2022/08/31 10:06:58;;;;;;;3.87;1.72;;;;;;;19.78;77.44;96953.02;1689326;84;21038;-89
2022/08/31 10:09:45;;;;;;;3.45;2.45;;;;;;;19.92;76.75;96956.78;1741388;80;21047;-89
2022/08/31 10:12:20;;;;;;;4.05;2.35;;;;;;;20.04;75.51;96962.89;1734012;81;20982;-88
2022/08/31 10:14:56;;;;;;;4.60;2.60;;;;;;;20.16;74.89;96965.00;1759582;80;21440;-88
2022/08/31 10:17:49;;;;;;;3.33;2.05;;;;;;;20.12;74.20;96960.42;1692521;83;20988;-88
2022/08/31 10:20:20;;;;;;;;;;;;;;;19.96;75.19;96957.41;1704464;84;21007;-89
2022/08/31 10:22:55;;;;;;;2.87;2.08;;;;;;;19.94;77.39;96959.47;1698365;83;20156;-88
2022/08/31 10:25:37;;;;;;;2.62;2.15;;;;;;;19.89;76.72;96962.52;1681013;83;21111;-89
2022/08/31 10:28:13;;;;;;;3.02;1.50;;;;;;;19.84;77.15;96961.05;1696097;83;20955;-89
2022/08/31 10:31:06;;;;;;;4.53;2.33;;;;;;;19.77;76.50;96956.69;1691437;83;20944;-89
2022/08/31 10:36:30;;;;;;;3.17;2.00;;;;;;;19.76;76.27;96959.04;1682847;84;21047;-88
2022/08/31 10:38:56;;;;;;;2.98;2.05;;;;;;;19.70;76.41;96956.52;1698840;83;21009;-88
2022/08/31 10:41:32;;;;;;;4.78;2.10;;;;;;;19.59;75.25;96952.80;1759709;81;20941;-88
2022/08/31 10:44:22;;;;;;;3.35;1.92;;;;;;;19.48;75.49;96952.20;1692819;83;21019;-89
2022/08/31 10:46:44;;;;;;;3.20;2.10;;;;;;;19.51;75.90;96951.75;1723971;83;21079;-88
2022/08/31 10:49:10;;;;;;;4.50;1.98;;;;;;;19.54;76.66;96952.67;1691843;83;21047;-89
2022/08/31 10:52:09;;;;;;;3.22;2.10;;;;;;;19.59;76.30;96952.80;1703802;83;21088;-89
2022/08/31 10:54:55;;;;;;;3.27;1.52;;;;;;;19.61;76.39;96941.52;1723130;83;21398;-88
2022/08/31 10:57:46;;;;;;;3.67;2.20;;;;;;;19.64;77.09;96944.21;1702690;83;21054;-87
2022/08/31 11:03:38;;;;;;;4.15;2.05;;;;;;;19.61;76.18;96941.52;1729554;81;21062;-88
2022/08/31 11:06:28;;;;;;;4.97;2.08;;;;;;;19.60;76.55;96937.79;1715453;81;21012;-88
2022/08/31 11:09:24;;;;;;;3.08;1.90;;;;;;;19.57;76.35;96940.88;1714289;81;20983;-88
2022/08/31 11:12:05;;;;;;;3.30;1.70;;;;;;;19.56;75.96;96941.91;1734923;81;20944;-88
2022/08/31 11:15:08;;;;;;;2.27;1.60;;;;;;;19.57;75.53;96934.29;1714593;81;21393;-87
2022/08/31 11:17:59;;;;;;;;;;;;;;;19.78;75.33;96927.97;1728736;81;20997;-88
2022/08/31 11:20:53;;;;;;;3.15;1.90;;;;;;;20.06;76.51;96926.02;1726919;83;20132;-88
2022/08/31 11:23:48;;;;;;;3.42;1.50;;;;;;;20.21;74.15;96924.77;1721528;81;21094;-88
2022/08/31 11:26:52;;;;;;;4.47;1.52;;;;;;;20.37;72.19;96918.80;1723086;83;21427;-88
2022/08/31 11:29:42;;;;;;;2.30;1.60;;;;;;;20.53;73.99;96926.56;1701548;83;21059;-88
2022/08/31 11:32:19;;;;;;;3.22;1.98;;;;;;;20.78;73.71;96924.96;1703703;81;21039;-88
2022/08/31 11:34:52;;;;;;;3.30;1.47;;;;;;;20.91;72.11;96921.55;1712338;81;21070;-88
2022/08/31 11:37:51;;;;;;;4.03;2.08;;;;;;;20.94;71.63;96916.31;1730258;81;21039;-88
2022/08/31 11:40:41;;;;;;;4.58;1.42;;;;;;;20.83;70.17;96924.56;1729194;83;20995;-88
2022/08/31 11:43:17;;;;;;;3.45;1.75;;;;;;;20.76;70.93;96923.08;1714987;81;21047;-88
2022/08/31 11:45:42;;;;;;;2.65;1.62;;;;;;;20.71;71.99;96919.02;1721082;82;21382;-88
2022/08/31 11:48:49;;;;;;;3.40;1.80;;;;;;;20.65;71.61;96928.13;1707738;83;20976;-89
2022/08/31 11:51:31;;;;;;;1.98;1.35;;;;;;;20.58;71.72;96926.14;1711034;81;21400;-88
2022/08/31 11:54:00;;;;;;;2.55;1.50;;;;;;;20.50;72.77;96927.00;1708881;83;21010;-88
2022/08/31 11:56:37;;;;;;;2.92;1.27;;;;;;;20.39;71.93;96936.52;1721780;81;21002;-88
2022/08/31 11:59:34;;;;;;;1.92;1.32;;;;;;;20.26;70.67;96940.19;1720006;81;21003;-88
2022/08/31 12:02:22;;;;;;;3.87;1.45;;;;;;;20.18;70.29;96929.19;1732146;81;21101;-88
2022/08/31 12:04:57;;;;;;;1.90;1.32;;;;;;;20.08;71.51;96937.66;1729567;83;21477;-88
2022/08/31 12:07:27;;;;;;;2.40;1.50;;;;;;;20.05;72.03;96932.84;1718381;81;21405;-88
2022/08/31 12:10:16;;;;;;;;;;;;;;;20.01;71.56;96939.58;1702853;81;20960;-88